createdAt,value
2022-10-22T11:12:00.804Z,4.68
2022-10-22T11:14:34.521Z,4.63
2022-10-22T11:17:17.285Z,4.25
2022-10-22T11:22:28.495Z,4.03
2022-10-22T11:25:01.263Z,4.82
2022-10-22T11:27:40.894Z,5.50
2022-10-22T11:30:22.287Z,4.80
2022-10-22T11:32:53.434Z,4.60
2022-10-22T11:35:33.183Z,5.53
2022-10-22T11:38:00.906Z,5.30
2022-10-22T11:40:38.009Z,5.00
2022-10-22T11:43:10.646Z,5.28
2022-10-22T11:45:40.758Z,5.38
2022-10-22T11:48:07.699Z,5.20
2022-10-22T11:50:57.513Z,4.93
2022-10-22T11:53:33.596Z,5.47
2022-10-22T11:56:07.883Z,5.20
2022-10-22T11:58:44.800Z,5.97
2022-10-22T12:01:11.468Z,5.55
2022-10-22T12:03:40.879Z,5.05
2022-10-22T12:06:15.043Z,5.75
2022-10-22T12:09:04.682Z,4.43
2022-10-22T12:11:39.551Z,5.32
2022-10-22T12:14:14.942Z,5.10
2022-10-22T12:16:56.298Z,5.10
2022-10-22T12:19:23.443Z,4.90
2022-10-22T12:22:06.231Z,5.13
2022-10-22T12:27:01.980Z,4.88
2022-10-22T12:29:32.398Z,4.88
2022-10-22T12:32:03.987Z,4.28
2022-10-22T12:34:30.619Z,4.23
2022-10-22T12:36:57.258Z,4.65
2022-10-22T12:39:26.985Z,4.97
2022-10-22T12:41:54.607Z,4.68
2022-10-22T12:44:21.558Z,4.70
2022-10-22T12:46:53.045Z,4.70
2022-10-22T12:49:34.938Z,4.28
2022-10-22T12:52:08.670Z,4.63
2022-10-22T12:54:39.572Z,4.70
2022-10-22T12:57:10.669Z,4.95
2022-10-22T12:59:40.004Z,5.20
2022-10-22T13:02:21.215Z,4.88
2022-10-22T13:05:16.266Z,4.85
2022-10-22T13:07:47.267Z,4.40
2022-10-22T13:10:27.609Z,4.70
2022-10-22T13:12:56.367Z,4.93
2022-10-22T13:15:36.576Z,5.30
2022-10-22T13:18:15.668Z,4.68
2022-10-22T13:20:57.128Z,5.35
2022-10-22T13:23:26.466Z,4.95
2022-10-22T13:26:11.807Z,4.38
2022-10-22T13:28:38.818Z,3.92
2022-10-22T13:31:19.632Z,3.50
2022-10-22T13:33:59.189Z,4.28
2022-10-22T13:36:26.346Z,3.78
2022-10-22T13:38:52.982Z,4.80
2022-10-22T13:41:28.563Z,5.72
2022-10-22T13:43:55.360Z,3.80
2022-10-22T13:46:23.553Z,3.80
2022-10-22T13:48:53.457Z,3.78
2022-10-22T13:51:23.059Z,2.97
2022-10-22T13:53:52.236Z,3.70
2022-10-22T13:56:21.264Z,3.50
2022-10-22T13:58:48.559Z,3.72
2022-10-22T14:01:24.630Z,3.45
2022-10-22T14:03:54.507Z,3.03
2022-10-22T14:06:22.596Z,3.97
2022-10-22T14:08:58.250Z,2.90
2022-10-22T14:11:27.243Z,2.72
2022-10-22T14:13:54.750Z,3.08
2022-10-22T14:16:24.407Z,3.15
2022-10-22T14:18:51.490Z,2.70
2022-10-22T14:21:18.650Z,3.47
2022-10-22T14:23:46.949Z,2.75
2022-10-22T14:26:31.194Z,2.42
2022-10-22T14:29:13.921Z,3.10
2022-10-22T14:34:10.795Z,2.88
2022-10-22T14:36:37.678Z,2.75
2022-10-22T14:39:04.354Z,2.95
2022-10-22T14:41:31.696Z,2.92
2022-10-22T14:43:59.638Z,2.90
2022-10-22T14:46:26.327Z,2.10
2022-10-22T14:48:53.177Z,2.42
2022-10-22T14:51:21.104Z,3.60
2022-10-22T14:53:48.114Z,2.55
2022-10-22T14:56:17.679Z,3.30
2022-10-22T14:58:45.619Z,3.00
2022-10-22T15:01:13.108Z,2.15
2022-10-22T15:03:39.910Z,2.45
2022-10-22T15:06:06.935Z,2.20
2022-10-22T15:08:34.079Z,2.92
2022-10-22T15:11:09.876Z,2.33
2022-10-22T15:13:36.910Z,2.35
2022-10-22T15:16:07.351Z,2.72
2022-10-22T15:18:34.456Z,2.10
2022-10-22T15:21:15.578Z,2.15
2022-10-22T15:23:42.338Z,2.50
2022-10-22T15:26:10.254Z,2.72
2022-10-22T15:28:38.129Z,2.22
2022-10-22T15:31:05.144Z,2.50
2022-10-22T15:33:32.129Z,2.15
2022-10-22T15:35:59.092Z,2.85
2022-10-22T15:41:05.566Z,3.17
2022-10-22T15:43:33.681Z,2.50
2022-10-22T15:46:18.219Z,2.35
2022-10-22T15:48:45.859Z,2.42
2022-10-22T15:51:18.122Z,2.22
2022-10-22T15:53:51.751Z,2.53
2022-10-22T15:56:18.927Z,2.58
2022-10-22T15:58:45.637Z,2.97
2022-10-22T16:01:14.230Z,2.63
2022-10-22T16:03:41.791Z,3.00
2022-10-22T16:06:09.410Z,2.85
2022-10-22T16:08:36.668Z,2.58
2022-10-22T16:11:04.142Z,2.75
2022-10-22T16:13:31.387Z,2.90
2022-10-22T16:15:58.029Z,3.03
2022-10-22T16:18:24.713Z,3.38
2022-10-22T16:20:51.374Z,3.33
2022-10-22T16:23:18.921Z,3.80
2022-10-22T16:25:46.472Z,2.85
2022-10-22T16:28:13.535Z,2.88
2022-10-22T16:30:40.281Z,3.28
2022-10-22T16:33:08.880Z,3.17
2022-10-22T16:35:41.096Z,3.10
2022-10-22T16:38:08.223Z,2.72
2022-10-22T16:40:34.900Z,3.15
2022-10-22T16:43:01.534Z,3.00
2022-10-22T16:45:28.191Z,3.13
2022-10-22T16:47:54.817Z,3.25
2022-10-22T16:50:21.453Z,3.50
2022-10-22T16:52:48.166Z,3.30
2022-10-22T16:55:14.930Z,2.45
2022-10-22T16:57:41.773Z,3.40
2022-10-22T17:00:09.314Z,2.80
2022-10-22T17:02:37.277Z,2.95
2022-10-22T17:05:04.110Z,2.95
2022-10-22T17:07:30.767Z,2.83
2022-10-22T17:09:57.603Z,2.97
2022-10-22T17:12:24.253Z,3.60
2022-10-22T17:14:51.094Z,3.15
2022-10-22T17:17:17.882Z,3.10
2022-10-22T17:19:44.523Z,3.58
2022-10-22T17:22:14.797Z,3.03
2022-10-22T17:24:44.279Z,3.40
2022-10-22T17:27:10.956Z,3.80
2022-10-22T17:29:37.710Z,3.97
2022-10-22T17:32:04.573Z,3.53
2022-10-22T17:34:33.132Z,2.90
2022-10-22T17:37:00.220Z,3.35
2022-10-22T17:39:27.049Z,3.80
2022-10-22T17:41:53.721Z,4.07
2022-10-22T17:44:20.387Z,2.85
2022-10-22T17:46:49.474Z,4.50
2022-10-22T17:49:19.010Z,3.67
2022-10-22T17:51:46.294Z,4.13
2022-10-22T17:54:14.129Z,4.18
2022-10-22T17:56:40.924Z,4.35
2022-10-22T17:59:08.764Z,4.32
2022-10-22T18:01:41.931Z,3.95
2022-10-22T18:04:09.100Z,4.20
2022-10-22T18:06:36.158Z,4.00
2022-10-22T18:09:13.243Z,5.35
2022-10-22T18:11:42.774Z,4.70
2022-10-22T18:14:09.521Z,5.00
2022-10-22T18:16:36.490Z,5.45
2022-10-22T18:19:03.542Z,5.13
2022-10-22T18:21:30.371Z,5.88
2022-10-22T18:23:59.351Z,5.57
2022-10-22T18:26:27.049Z,6.05
2022-10-22T18:28:54.783Z,5.90
2022-10-22T18:31:24.054Z,5.72
2022-10-22T18:33:51.181Z,5.45
2022-10-22T18:36:20.367Z,5.45
2022-10-22T18:38:58.553Z,6.63
2022-10-22T18:41:26.198Z,6.65
2022-10-22T18:43:58.372Z,6.15
2022-10-22T18:46:26.046Z,6.25
2022-10-22T18:48:54.180Z,6.10
2022-10-22T18:51:21.171Z,7.07
2022-10-22T18:53:59.235Z,7.00
2022-10-22T18:56:39.009Z,6.88
2022-10-22T18:59:05.656Z,7.30
2022-10-22T19:01:35.407Z,7.55
2022-10-22T19:04:02.213Z,7.03
2022-10-22T19:06:34.457Z,7.13
2022-10-22T19:09:04.458Z,5.90
2022-10-22T19:11:31.504Z,7.15
2022-10-22T19:13:58.524Z,8.15
2022-10-22T19:16:26.978Z,7.93
2022-10-22T19:19:00.146Z,7.75
2022-10-22T19:21:27.106Z,7.53
2022-10-22T19:24:00.769Z,7.70
2022-10-22T19:26:28.986Z,8.25
2022-10-22T19:28:56.577Z,7.57
2022-10-22T19:31:25.583Z,7.93
2022-10-22T19:33:55.187Z,8.65
2022-10-22T19:36:24.403Z,8.25
2022-10-22T19:38:51.366Z,8.77
2022-10-22T19:41:20.079Z,8.40
2022-10-22T19:43:49.658Z,8.50
2022-10-22T19:46:17.856Z,8.65
2022-10-22T19:51:34.797Z,9.10
2022-10-22T19:54:07.505Z,7.75
2022-10-22T19:56:35.241Z,7.80
2022-10-22T19:59:03.761Z,8.80
2022-10-22T20:01:31.899Z,8.50
2022-10-22T20:03:58.785Z,8.82
2022-10-22T20:06:25.423Z,8.48
2022-10-22T20:08:55.236Z,8.27
2022-10-22T20:11:28.921Z,9.05
2022-10-22T20:16:25.885Z,8.45
2022-10-22T20:18:52.829Z,8.25
2022-10-22T20:21:20.347Z,8.48
2022-10-22T20:23:48.010Z,8.35
2022-10-22T20:26:14.711Z,8.13
2022-10-22T20:28:41.438Z,9.60
2022-10-22T20:31:10.520Z,8.43
2022-10-22T20:33:37.204Z,9.20
2022-10-22T20:36:07.407Z,9.13
2022-10-22T20:38:34.305Z,8.63
2022-10-22T20:41:06.296Z,9.05
2022-10-22T20:43:33.541Z,8.40
2022-10-22T20:46:00.582Z,9.10
2022-10-22T20:48:31.417Z,8.18
2022-10-22T20:50:59.614Z,8.70
2022-10-22T20:53:27.432Z,8.52
2022-10-22T20:55:59.016Z,8.90
2022-10-22T20:58:27.304Z,8.20
2022-10-22T21:00:55.006Z,7.93
2022-10-22T21:03:22.131Z,7.65
2022-10-22T21:05:48.964Z,8.05
2022-10-22T21:08:17.478Z,7.43
2022-10-22T21:10:46.383Z,8.68
2022-10-22T21:13:13.918Z,7.75
2022-10-22T21:15:40.978Z,7.47
2022-10-22T21:18:08.541Z,7.57
2022-10-22T21:20:35.388Z,7.57
2022-10-22T21:23:02.488Z,7.30
2022-10-22T21:25:29.210Z,6.68
2022-10-22T21:27:55.887Z,7.13
2022-10-22T21:30:22.600Z,7.72
2022-10-22T21:32:49.423Z,8.05
2022-10-22T21:35:16.178Z,5.88
2022-10-22T21:37:43.048Z,6.88
2022-10-22T21:40:10.585Z,5.72
2022-10-22T21:42:37.333Z,6.40
2022-10-22T21:45:06.970Z,7.47
2022-10-22T21:47:35.919Z,5.83
2022-10-22T21:50:03.292Z,6.38
2022-10-22T21:52:29.962Z,6.68
2022-10-22T21:54:56.647Z,6.72
2022-10-22T21:57:23.294Z,5.93
2022-10-22T21:59:49.990Z,6.32
2022-10-22T22:02:16.682Z,5.70
2022-10-22T22:04:43.427Z,5.82
2022-10-22T22:07:10.123Z,6.10
2022-10-22T22:09:37.067Z,6.38
2022-10-22T22:12:03.903Z,7.45
2022-10-22T22:14:31.006Z,6.47
2022-10-22T22:16:57.846Z,6.68
2022-10-22T22:19:24.538Z,7.28
2022-10-22T22:21:52.799Z,7.57
2022-10-22T22:24:19.504Z,7.95
2022-10-22T22:26:46.215Z,7.10
2022-10-22T22:29:12.942Z,7.97
2022-10-22T22:31:40.243Z,8.98
2022-10-22T22:34:10.441Z,8.15
2022-10-22T22:36:40.329Z,8.45
2022-10-22T22:39:09.071Z,8.23
2022-10-22T22:41:35.831Z,7.72
2022-10-22T22:44:02.556Z,7.38
2022-10-22T22:46:29.434Z,9.32
2022-10-22T22:48:56.220Z,7.60
2022-10-22T22:51:22.988Z,7.03
2022-10-22T22:53:49.984Z,7.32
2022-10-22T22:56:22.629Z,6.78
2022-10-22T23:01:25.482Z,7.20
2022-10-22T23:03:56.522Z,7.35
2022-10-22T23:06:25.277Z,7.28
2022-10-22T23:08:53.386Z,7.53
2022-10-22T23:11:21.567Z,7.10
2022-10-22T23:13:52.779Z,7.70
2022-10-22T23:16:21.543Z,6.93
2022-10-22T23:18:48.924Z,6.85
2022-10-22T23:21:21.613Z,6.60
2022-10-22T23:23:52.148Z,7.28
2022-10-22T23:26:21.856Z,7.57
2022-10-22T23:28:48.882Z,7.95
2022-10-22T23:31:18.321Z,6.72
2022-10-22T23:33:46.026Z,6.68
2022-10-22T23:36:13.228Z,6.30
2022-10-22T23:38:41.034Z,7.10
2022-10-22T23:41:08.688Z,7.20
2022-10-22T23:43:36.664Z,6.82
2022-10-22T23:46:08.315Z,7.40
2022-10-22T23:48:35.800Z,6.70
2022-10-22T23:51:15.715Z,6.45
2022-10-22T23:53:44.115Z,6.53
2022-10-22T23:56:18.008Z,6.07
2022-10-22T23:58:45.229Z,6.15
